Time;durP1;ratioP1;P1;durP2;ratioP2;P2;SDS_P1;SDS_P2;PMS_P1;PMS_P2;Temp;Humidity;BMP_temperature;BMP_pressure;BME280_temperature;BME280_humidity;BME280_pressure;Samples;Min_cycle;Max_cycle;Signal;HPM_P1;HPM_P2
2022/10/16 00:01:28;;;;;;;5.00;3.92;;;;;;;13.03;100.00;100353.06;4918652;29;20099;-83
2022/10/16 00:03:56;;;;;;;5.90;4.15;;;;;;;13.08;100.00;100355.53;4927955;29;20070;-83
2022/10/16 00:06:23;;;;;;;5.22;4.05;;;;;;;13.07;100.00;100359.09;4918899;29;20409;-83
2022/10/16 00:08:50;;;;;;;5.28;4.20;;;;;;;13.04;100.00;100364.53;4933224;29;20058;-83
2022/10/16 00:11:19;;;;;;;4.15;3.75;;;;;;;13.09;100.00;100378.47;4921007;29;20491;-83
2022/10/16 00:13:47;;;;;;;4.78;4.20;;;;;;;13.12;100.00;100376.59;4926817;29;20031;-83
2022/10/16 00:16:14;;;;;;;4.97;4.00;;;;;;;13.23;100.00;100371.78;4922868;29;20043;-82
2022/10/16 00:18:41;;;;;;;4.65;3.67;;;;;;;13.27;100.00;100372.53;4924809;29;20086;-83
2022/10/16 00:21:28;;;;;;;4.15;3.75;;;;;;;13.26;100.00;100364.63;4923157;29;20051;-83
2022/10/16 00:24:01;;;;;;;4.70;3.42;;;;;;;13.30;100.00;100369.78;4915255;29;20405;-83
2022/10/16 00:26:30;;;;;;;3.92;3.50;;;;;;;13.30;100.00;100367.13;4923388;28;20050;-83
2022/10/16 00:28:57;;;;;;;4.68;3.60;;;;;;;13.31;100.00;100373.31;4919594;29;20497;-83
2022/10/16 00:31:24;;;;;;;4.55;3.38;;;;;;;13.31;100.00;100371.53;4927223;29;20112;-82
2022/10/16 00:33:51;;;;;;;4.15;3.20;;;;;;;13.38;100.00;100370.38;4920111;29;20098;-82
2022/10/16 00:36:20;;;;;;;5.35;3.75;;;;;;;13.37;100.00;100384.56;4928295;29;20047;-82
2022/10/16 00:38:47;;;;;;;3.95;3.33;;;;;;;13.39;100.00;100381.84;4920373;29;20058;-82
2022/10/16 00:41:16;;;;;;;4.75;3.30;;;;;;;13.36;100.00;100382.81;4910825;29;20104;-82
2022/10/16 00:43:45;;;;;;;5.25;3.35;;;;;;;13.42;100.00;100387.91;4917406;29;20047;-82
2022/10/16 00:46:19;;;;;;;3.38;3.08;;;;;;;13.42;100.00;100395.00;4924602;29;20043;-82
2022/10/16 00:48:51;;;;;;;3.35;3.05;;;;;;;13.45;100.00;100395.78;4921932;29;20067;-82
2022/10/16 00:51:21;;;;;;;4.00;3.20;;;;;;;13.47;100.00;100396.56;4925336;29;20389;-82
2022/10/16 00:53:49;;;;;;;4.75;3.80;;;;;;;13.46;100.00;100396.63;4914976;29;20040;-82
2022/10/16 00:56:16;;;;;;;4.47;3.42;;;;;;;13.46;100.00;100386.03;4914732;29;20044;-81
2022/10/16 00:58:43;;;;;;;3.60;2.70;;;;;;;13.50;100.00;100393.78;4918688;29;20134;-82
2022/10/16 01:01:09;;;;;;;5.13;3.33;;;;;;;13.53;100.00;100403.44;4918480;29;20043;-82
2022/10/16 01:03:37;;;;;;;5.95;3.55;;;;;;;13.58;100.00;100397.97;4940877;29;20050;-82
2022/10/16 01:06:14;;;;;;;4.45;3.20;;;;;;;13.56;100.00;100399.81;4902468;29;20051;-82
2022/10/16 01:08:49;;;;;;;3.47;3.17;;;;;;;13.62;100.00;100400.47;4930444;29;20174;-82
2022/10/16 01:11:35;;;;;;;3.35;2.97;;;;;;;13.63;100.00;100406.63;4894862;29;20396;-82
2022/10/16 01:14:11;;;;;;;5.00;2.70;;;;;;;13.66;100.00;100422.44;4903585;29;20513;-83
2022/10/16 01:17:00;;;;;;;3.65;2.95;;;;;;;13.72;100.00;100416.91;4914998;29;20043;-84
2022/10/16 01:19:40;;;;;;;4.65;3.17;;;;;;;13.64;100.00;100413.66;4919469;29;20077;-83
2022/10/16 01:22:08;;;;;;;5.03;3.10;;;;;;;13.65;100.00;100418.06;4933146;29;20044;-82
2022/10/16 01:24:40;;;;;;;3.15;2.72;;;;;;;13.69;100.00;100411.69;4908163;29;20052;-82
2022/10/16 01:27:12;;;;;;;4.35;3.22;;;;;;;13.69;100.00;100417.00;4918280;29;20048;-82
2022/10/16 01:29:49;;;;;;;4.10;2.95;;;;;;;13.67;100.00;100417.06;4921061;29;20119;-82
2022/10/16 01:32:21;;;;;;;3.20;2.72;;;;;;;13.70;100.00;100414.28;4915642;29;20405;-82
2022/10/16 01:34:55;;;;;;;2.92;2.60;;;;;;;13.71;100.00;100426.66;4902555;29;20070;-81
2022/10/16 01:37:33;;;;;;;3.08;2.72;;;;;;;13.70;100.00;100429.34;4907704;29;20099;-82
2022/10/16 01:40:03;;;;;;;3.30;2.97;;;;;;;13.72;100.00;100415.13;4898986;29;20420;-82
2022/10/16 01:42:34;;;;;;;3.80;2.38;;;;;;;13.74;100.00;100426.53;4904994;29;20050;-82
2022/10/16 01:45:02;;;;;;;5.03;3.10;;;;;;;13.83;100.00;100420.03;4899016;29;20047;-82
2022/10/16 01:47:30;;;;;;;3.17;2.60;;;;;;;13.79;100.00;100419.28;4901867;29;20043;-83
2022/10/16 01:49:58;;;;;;;3.10;2.75;;;;;;;13.81;100.00;100429.84;4913878;29;20098;-82
2022/10/16 01:52:26;;;;;;;3.13;2.40;;;;;;;13.79;100.00;100423.72;4926038;29;20040;-82
2022/10/16 01:54:55;;;;;;;4.15;2.60;;;;;;;13.77;100.00;100430.84;4899411;29;20044;-82
2022/10/16 01:57:25;;;;;;;2.92;2.35;;;;;;;13.79;100.00;100432.56;4927773;29;20994;-82
2022/10/16 01:59:54;;;;;;;3.78;2.25;;;;;;;13.84;100.00;100434.16;4914262;29;20044;-82
2022/10/16 02:02:22;;;;;;;3.15;2.55;;;;;;;13.91;100.00;100441.84;4920694;29;20051;-82
2022/10/16 02:04:53;;;;;;;4.80;2.65;;;;;;;13.92;100.00;100450.66;4900846;29;20469;-82
2022/10/16 02:07:20;;;;;;;3.30;2.40;;;;;;;13.89;100.00;100443.69;4901655;29;20055;-82
2022/10/16 02:09:46;;;;;;;3.67;2.60;;;;;;;13.92;100.00;100440.91;4924306;29;20035;-83
2022/10/16 02:12:19;;;;;;;4.32;2.45;;;;;;;13.90;100.00;100444.56;4914696;29;20039;-82
2022/10/16 02:14:45;;;;;;;3.75;2.38;;;;;;;13.87;100.00;100437.56;4922448;29;20047;-83
2022/10/16 02:17:15;;;;;;;3.22;2.25;;;;;;;13.93;100.00;100434.66;4900326;29;20074;-83
2022/10/16 02:19:43;;;;;;;2.67;2.33;;;;;;;13.90;100.00;100449.88;4894567;29;20052;-83
2022/10/16 02:22:16;;;;;;;2.78;2.30;;;;;;;13.89;100.00;100459.63;4915117;29;20044;-83
2022/10/16 02:25:05;;;;;;;3.20;2.15;;;;;;;13.88;100.00;100459.69;4901423;29;20055;-82
2022/10/16 02:27:36;;;;;;;2.63;2.40;;;;;;;13.93;100.00;100455.91;4917391;29;20036;-83
2022/10/16 02:30:14;;;;;;;3.30;2.58;;;;;;;13.88;100.00;100467.66;4911341;29;20047;-83
2022/10/16 02:32:43;;;;;;;2.42;2.22;;;;;;;13.90;100.00;100469.31;4906831;29;20032;-85
2022/10/16 02:35:10;;;;;;;3.78;2.10;;;;;;;13.88;100.00;100465.88;4902412;29;20458;-83
2022/10/16 02:37:38;;;;;;;2.85;2.30;;;;;;;13.87;100.00;100474.72;4902391;29;20051;-83
2022/10/16 02:40:05;;;;;;;3.00;2.22;;;;;;;13.87;100.00;100480.03;4918890;29;20062;-84
2022/10/16 02:42:37;;;;;;;4.18;2.50;;;;;;;13.86;100.00;100480.97;4902094;29;20099;-83
2022/10/16 02:45:05;;;;;;;2.63;2.10;;;;;;;13.89;100.00;100480.88;4914147;29;20048;-83
2022/10/16 02:47:32;;;;;;;2.75;2.30;;;;;;;13.87;100.00;100473.88;4902543;29;20193;-84
2022/10/16 02:49:59;;;;;;;3.13;2.13;;;;;;;13.89;100.00;100472.91;4894753;29;20048;-84
2022/10/16 02:52:25;;;;;;;4.20;2.40;;;;;;;13.90;100.00;100477.28;4909047;29;20040;-85
2022/10/16 02:54:52;;;;;;;3.30;2.40;;;;;;;13.86;100.00;100480.09;4913314;29;20209;-87
2022/10/16 02:57:19;;;;;;;3.22;2.03;;;;;;;13.84;100.00;100490.78;4914066;28;20099;-85
2022/10/16 02:59:46;;;;;;;3.25;2.25;;;;;;;13.82;100.00;100486.47;4916584;29;20055;-86
2022/10/16 03:02:13;;;;;;;2.28;2.08;;;;;;;13.82;100.00;100489.97;4908360;29;20047;-86
2022/10/16 03:04:39;;;;;;;3.47;1.90;;;;;;;13.81;100.00;100493.56;4914630;29;20091;-84
2022/10/16 03:07:06;;;;;;;2.20;1.92;;;;;;;13.84;100.00;100501.41;4913386;29;20095;-85
2022/10/16 03:09:33;;;;;;;3.38;1.85;;;;;;;13.87;100.00;100495.09;4916509;29;20143;-85
2022/10/16 03:12:00;;;;;;;2.72;2.17;;;;;;;13.83;100.00;100494.38;4898337;29;20043;-82
2022/10/16 03:14:26;;;;;;;3.10;1.95;;;;;;;13.82;100.00;100491.78;4918828;29;20040;-85
2022/10/16 03:16:54;;;;;;;5.57;2.13;;;;;;;13.79;100.00;100487.44;4900745;29;20047;-85
2022/10/16 03:19:20;;;;;;;2.15;1.80;;;;;;;13.79;100.00;100503.38;4916411;29;20043;-84
2022/10/16 03:21:47;;;;;;;2.00;1.77;;;;;;;13.74;100.00;100503.53;4908810;29;20032;-85
2022/10/16 03:24:14;;;;;;;2.42;1.92;;;;;;;13.85;100.00;100507.59;4918315;29;20065;-81
2022/10/16 03:26:40;;;;;;;2.50;2.10;;;;;;;13.90;100.00;100517.13;4931207;28;20036;-83
2022/10/16 03:29:07;;;;;;;3.95;2.30;;;;;;;13.85;100.00;100515.56;4908603;29;21693;-84
2022/10/16 03:31:34;;;;;;;3.22;2.38;;;;;;;13.85;100.00;100516.41;4910782;29;20051;-82
2022/10/16 03:34:01;;;;;;;3.95;2.10;;;;;;;13.86;100.00;100506.66;4923276;29;20168;-83
2022/10/16 03:36:27;;;;;;;3.65;2.17;;;;;;;13.80;100.00;100505.97;4899306;29;20076;-86
2022/10/16 03:38:54;;;;;;;4.03;2.25;;;;;;;13.76;100.00;100514.97;4920553;29;20062;-86
2022/10/16 03:41:20;;;;;;;2.50;1.90;;;;;;;13.73;100.00;100520.38;4903294;29;20393;-83
2022/10/16 03:43:47;;;;;;;3.30;1.88;;;;;;;13.67;100.00;100522.38;4914666;29;20067;-84
2022/10/16 03:46:14;;;;;;;2.50;1.90;;;;;;;13.61;100.00;100530.56;4900626;29;20103;-84
2022/10/16 03:48:40;;;;;;;2.15;1.70;;;;;;;13.57;100.00;100543.09;4898614;29;20050;-83
2022/10/16 03:51:07;;;;;;;2.80;1.85;;;;;;;13.53;100.00;100541.44;4916379;29;20047;-83
2022/10/16 03:53:34;;;;;;;2.53;1.90;;;;;;;13.48;100.00;100531.00;4893880;29;20047;-85
2022/10/16 03:56:00;;;;;;;2.38;1.65;;;;;;;13.44;100.00;100523.19;4912355;29;20048;-82
2022/10/16 03:58:27;;;;;;;2.30;2.10;;;;;;;13.40;100.00;100529.53;4933228;29;20040;-83
2022/10/16 04:00:54;;;;;;;2.00;1.70;;;;;;;13.36;100.00;100533.19;4935630;29;20522;-84
2022/10/16 04:03:21;;;;;;;2.53;1.90;;;;;;;13.32;100.00;100526.28;4915960;29;20040;-84
2022/10/16 04:05:47;;;;;;;2.42;2.00;;;;;;;13.27;100.00;100531.72;4896230;29;20043;-83
2022/10/16 04:08:14;;;;;;;2.40;1.80;;;;;;;13.20;100.00;100536.38;4900251;29;20120;-84
2022/10/16 04:10:44;;;;;;;2.65;2.10;;;;;;;13.17;100.00;100523.16;4898131;29;20100;-81
2022/10/16 04:13:11;;;;;;;3.38;2.13;;;;;;;13.13;100.00;100526.84;4920057;29;20103;-84
2022/10/16 04:15:38;;;;;;;3.45;1.90;;;;;;;13.05;100.00;100528.03;4917889;29;20047;-84
2022/10/16 04:18:05;;;;;;;3.67;2.28;;;;;;;13.01;100.00;100545.81;4911060;29;20107;-83
2022/10/16 04:20:33;;;;;;;2.60;1.88;;;;;;;12.93;100.00;100539.88;4919553;29;20047;-83
2022/10/16 04:22:59;;;;;;;2.33;2.00;;;;;;;12.87;100.00;100554.22;4904172;29;20103;-82
2022/10/16 04:25:26;;;;;;;2.03;1.70;;;;;;;12.82;100.00;100560.56;4910562;29;20060;-84
2022/10/16 04:27:54;;;;;;;2.25;2.05;;;;;;;12.76;100.00;100558.97;4942164;29;20449;-82
2022/10/16 04:30:21;;;;;;;2.20;1.83;;;;;;;12.72;100.00;100565.28;4918237;29;20048;-84
2022/10/16 04:32:51;;;;;;;2.90;1.90;;;;;;;12.70;100.00;100560.97;4905840;29;20055;-83
2022/10/16 04:35:19;;;;;;;2.85;1.83;;;;;;;12.66;100.00;100560.19;4917107;29;20047;-82
2022/10/16 04:37:46;;;;;;;2.33;1.92;;;;;;;12.65;100.00;100558.44;4918337;29;20070;-83
2022/10/16 04:40:13;;;;;;;4.07;1.98;;;;;;;12.62;100.00;100563.84;4901306;29;20098;-84
2022/10/16 04:42:40;;;;;;;2.10;1.90;;;;;;;12.55;100.00;100562.28;4907220;29;20409;-83
2022/10/16 04:45:08;;;;;;;2.33;1.77;;;;;;;12.51;100.00;100566.78;4917962;29;20043;-84
2022/10/16 04:47:40;;;;;;;2.85;1.90;;;;;;;12.50;100.00;100577.44;4904583;29;20074;-84
2022/10/16 04:50:07;;;;;;;2.50;2.25;;;;;;;12.49;100.00;100573.94;4921231;29;20139;-85
2022/10/16 04:52:34;;;;;;;2.50;1.90;;;;;;;12.46;100.00;100557.28;4939383;28;20043;-82
2022/10/16 04:55:02;;;;;;;2.20;2.00;;;;;;;12.48;100.00;100566.91;4921125;29;20513;-82
2022/10/16 04:57:29;;;;;;;3.58;2.13;;;;;;;12.43;100.00;100563.50;4915154;29;20047;-83
2022/10/16 04:59:56;;;;;;;2.40;1.95;;;;;;;12.36;100.00;100568.16;4921061;29;20512;-83
2022/10/16 05:02:23;;;;;;;2.67;2.15;;;;;;;12.32;100.00;100565.63;4922055;29;20087;-82
2022/10/16 05:04:50;;;;;;;3.17;2.05;;;;;;;12.28;100.00;100571.94;4902119;29;20495;-85
2022/10/16 05:07:17;;;;;;;2.53;2.00;;;;;;;12.23;100.00;100565.88;4937839;29;20140;-81
2022/10/16 05:09:44;;;;;;;2.38;2.03;;;;;;;12.22;100.00;100575.59;4936987;29;20052;-83
2022/10/16 05:12:10;;;;;;;3.17;1.95;;;;;;;12.18;100.00;100573.94;4920907;29;20593;-83
2022/10/16 05:14:37;;;;;;;4.07;1.98;;;;;;;12.16;100.00;100585.50;4899776;29;20130;-84
2022/10/16 05:17:04;;;;;;;2.70;2.15;;;;;;;12.14;100.00;100582.91;4929317;29;20050;-85
2022/10/16 05:19:31;;;;;;;2.17;1.90;;;;;;;12.10;100.00;100583.88;4919200;29;20596;-83
2022/10/16 05:21:58;;;;;;;2.70;1.90;;;;;;;12.07;100.00;100584.84;4903073;29;20048;-84
2022/10/16 05:24:24;;;;;;;3.15;2.60;;;;;;;12.03;100.00;100574.41;4916312;29;20040;-85
2022/10/16 05:26:51;;;;;;;4.00;2.65;;;;;;;12.01;100.00;100576.19;4900048;29;20063;-84
2022/10/16 05:29:18;;;;;;;3.05;2.03;;;;;;;11.99;100.00;100576.25;4920886;29;20059;-86
2022/10/16 05:31:45;;;;;;;3.22;2.38;;;;;;;11.99;100.00;100576.25;4930294;29;20039;-83
2022/10/16 05:34:12;;;;;;;2.90;1.90;;;;;;;12.02;100.00;100591.16;4934176;29;20082;-84
2022/10/16 05:36:39;;;;;;;3.38;1.90;;;;;;;11.99;100.00;100591.28;4922149;29;20099;-86
2022/10/16 05:39:06;;;;;;;3.83;2.10;;;;;;;11.95;100.00;100597.56;4903362;29;20071;-84
2022/10/16 05:41:33;;;;;;;3.20;2.10;;;;;;;11.97;100.00;100601.91;4902474;29;20052;-84
2022/10/16 05:43:59;;;;;;;3.10;2.08;;;;;;;11.98;100.00;100610.72;4903659;29;20047;-85
2022/10/16 05:46:26;;;;;;;2.38;2.13;;;;;;;12.00;100.00;100614.19;4915979;29;20068;-85
2022/10/16 05:48:53;;;;;;;2.53;1.80;;;;;;;12.03;100.00;100611.47;4905814;29;20083;-84
2022/10/16 05:51:20;;;;;;;3.58;2.00;;;;;;;12.05;100.00;100604.34;4916007;29;20477;-81
2022/10/16 05:53:47;;;;;;;2.15;1.80;;;;;;;12.07;100.00;100611.34;4920690;29;20043;-84
2022/10/16 05:56:16;;;;;;;3.22;1.90;;;;;;;12.08;100.00;100604.25;4910141;29;20044;-85
2022/10/16 05:58:46;;;;;;;2.53;2.00;;;;;;;12.10;100.00;100615.66;4910935;29;20139;-83
2022/10/16 06:01:16;;;;;;;4.50;2.45;;;;;;;12.12;100.00;100611.22;4914235;29;20047;-84
2022/10/16 06:03:43;;;;;;;4.00;2.20;;;;;;;12.16;100.00;100617.28;4913402;29;20099;-84
2022/10/16 06:06:12;;;;;;;3.35;2.30;;;;;;;12.18;100.00;100620.75;4950580;28;20047;-84
2022/10/16 06:08:40;;;;;;;3.10;1.92;;;;;;;12.20;100.00;100624.25;4917634;29;20050;-83
2022/10/16 06:11:09;;;;;;;2.80;2.10;;;;;;;12.19;100.00;100615.44;4919288;29;20051;-82
2022/10/16 06:13:36;;;;;;;3.42;2.22;;;;;;;12.21;100.00;100616.25;4915644;29;20083;-84
2022/10/16 06:16:03;;;;;;;5.20;1.92;;;;;;;12.23;100.00;100619.72;4928472;29;20127;-83
2022/10/16 06:18:30;;;;;;;4.13;2.00;;;;;;;12.25;100.00;100627.63;4909337;29;20044;-82
2022/10/16 06:20:58;;;;;;;3.45;2.22;;;;;;;12.27;100.00;100633.75;4933477;29;20079;-84
2022/10/16 06:23:25;;;;;;;3.80;2.15;;;;;;;12.30;100.00;100646.91;4938575;29;20042;-83
2022/10/16 06:25:52;;;;;;;2.30;1.77;;;;;;;12.31;100.00;100649.53;4921982;29;20044;-84
2022/10/16 06:28:19;;;;;;;4.70;2.70;;;;;;;12.31;100.00;100636.28;4918711;29;20107;-82
2022/10/16 06:30:46;;;;;;;2.50;1.90;;;;;;;12.44;100.00;100638.56;4914863;29;20044;-83
2022/10/16 06:33:13;;;;;;;4.15;1.88;;;;;;;12.46;100.00;100639.41;4916587;29;20074;-84
2022/10/16 06:35:39;;;;;;;3.95;2.22;;;;;;;12.47;100.00;100647.31;4931110;29;20118;-82
2022/10/16 06:38:06;;;;;;;2.95;2.20;;;;;;;12.58;100.00;100652.28;4919647;29;20135;-84
2022/10/16 06:40:33;;;;;;;3.20;2.00;;;;;;;12.59;100.00;100661.97;4899379;29;20553;-80
2022/10/16 06:43:00;;;;;;;2.20;1.80;;;;;;;12.65;100.00;100665.31;4915876;23;20060;-77
2022/10/16 06:45:27;;;;;;;4.22;2.20;;;;;;;12.65;100.00;100672.41;4892315;29;20040;-77
2022/10/16 06:47:53;;;;;;;3.90;2.35;;;;;;;12.70;100.00;100673.16;4913272;29;20040;-77
2022/10/16 06:50:20;;;;;;;2.60;2.10;;;;;;;12.78;100.00;100680.88;4911062;29;20047;-75
2022/10/16 06:52:47;;;;;;;3.10;2.50;;;;;;;12.82;100.00;100677.22;4926100;28;20039;-75
2022/10/16 06:55:14;;;;;;;2.42;1.92;;;;;;;12.87;100.00;100676.19;4910801;29;20040;-77
2022/10/16 06:57:41;;;;;;;3.83;2.25;;;;;;;12.95;100.00;100682.13;4908429;29;20047;-77
2022/10/16 07:00:08;;;;;;;3.17;2.10;;;;;;;13.03;100.00;100671.31;4896205;29;20509;-77
2022/10/16 07:02:34;;;;;;;3.28;2.47;;;;;;;13.21;100.00;100686.69;4906127;29;20036;-76
2022/10/16 07:05:01;;;;;;;3.40;2.40;;;;;;;13.23;100.00;100679.53;4911816;29;20037;-77
2022/10/16 07:07:28;;;;;;;3.50;2.33;;;;;;;13.31;100.00;100683.75;4910781;29;20556;-77
2022/10/16 07:09:54;;;;;;;4.45;2.53;;;;;;;13.37;100.00;100687.06;4907643;29;20055;-77
2022/10/16 07:12:21;;;;;;;3.25;2.35;;;;;;;13.39;100.00;100701.16;4879935;29;20036;-77
2022/10/16 07:14:48;;;;;;;4.10;2.38;;;;;;;13.51;100.00;100698.09;4910055;29;20044;-77
2022/10/16 07:17:14;;;;;;;3.67;2.95;;;;;;;13.53;100.00;100712.19;4914407;29;20110;-78
2022/10/16 07:19:41;;;;;;;4.82;2.92;;;;;;;13.59;100.00;100703.16;4913245;29;20064;-78
2022/10/16 07:22:07;;;;;;;4.32;2.65;;;;;;;13.66;100.00;100709.16;4913799;29;20417;-78
2022/10/16 07:24:34;;;;;;;3.17;2.50;;;;;;;13.69;100.00;100717.88;4913147;29;20637;-77
2022/10/16 07:27:01;;;;;;;2.30;2.10;;;;;;;13.73;100.00;100718.66;4908246;29;20446;-77
2022/10/16 07:29:28;;;;;;;3.22;2.75;;;;;;;13.90;100.00;100723.41;4891983;29;20037;-78
2022/10/16 07:31:54;;;;;;;3.55;2.25;;;;;;;13.88;100.00;100731.44;4910087;29;20075;-79
2022/10/16 07:34:24;;;;;;;3.15;2.50;;;;;;;13.86;100.00;100727.94;4912431;29;20040;-78
2022/10/16 07:36:51;;;;;;;4.85;2.45;;;;;;;13.98;100.00;100726.69;4913971;29;20050;-79
2022/10/16 07:39:18;;;;;;;3.15;2.33;;;;;;;13.97;100.00;100728.47;4912650;29;20446;-77
2022/10/16 07:41:44;;;;;;;2.58;2.35;;;;;;;14.00;100.00;100725.72;4911693;29;20056;-78
2022/10/16 07:44:11;;;;;;;3.20;2.40;;;;;;;14.15;100.00;100720.81;4922687;29;20091;-77
2022/10/16 07:46:38;;;;;;;3.50;2.83;;;;;;;14.31;100.00;100722.00;4911910;29;20044;-76
2022/10/16 07:49:04;;;;;;;2.72;2.10;;;;;;;14.55;100.00;100734.47;4905256;29;20040;-77
2022/10/16 07:51:31;;;;;;;4.22;2.20;;;;;;;14.73;100.00;100735.59;4929726;28;20064;-77
2022/10/16 07:53:58;;;;;;;2.45;2.13;;;;;;;14.86;100.00;100731.56;4937866;29;20039;-78
2022/10/16 07:56:25;;;;;;;4.47;2.08;;;;;;;15.05;100.00;100738.84;4933095;29;20099;-77
2022/10/16 07:58:51;;;;;;;2.35;2.13;;;;;;;15.12;100.00;100735.03;4902798;29;20111;-78
2022/10/16 08:01:18;;;;;;;3.95;2.05;;;;;;;15.20;100.00;100727.63;4894601;29;20107;-77
2022/10/16 08:03:47;;;;;;;4.35;1.80;;;;;;;15.24;100.00;100729.25;4897183;29;20044;-76
2022/10/16 08:06:14;;;;;;;2.15;1.70;;;;;;;15.28;100.00;100730.00;4879084;29;20134;-77
2022/10/16 08:08:40;;;;;;;2.97;2.15;;;;;;;15.36;100.00;100723.44;4908974;29;20560;-77
2022/10/16 08:11:07;;;;;;;2.92;1.90;;;;;;;15.40;100.00;100727.72;4899624;29;20115;-78
2022/10/16 08:13:34;;;;;;;3.25;2.20;;;;;;;15.52;100.00;100737.03;4912699;29;20090;-76
2022/10/16 08:16:01;;;;;;;3.28;1.80;;;;;;;15.50;100.00;100736.22;4901217;29;20084;-78
2022/10/16 08:18:28;;;;;;;3.53;2.17;;;;;;;15.59;100.00;100724.34;4920681;29;20035;-78
2022/10/16 08:20:57;;;;;;;3.35;2.00;;;;;;;15.67;100.00;100720.47;4896098;29;20073;-78
2022/10/16 08:23:25;;;;;;;2.47;1.92;;;;;;;15.73;100.00;100728.22;4901027;29;20064;-77
2022/10/16 08:25:53;;;;;;;2.60;1.60;;;;;;;15.72;100.00;100730.91;4911179;29;20099;-77
2022/10/16 08:28:20;;;;;;;2.17;1.83;;;;;;;15.73;100.00;100730.88;4929401;29;20048;-79
2022/10/16 08:30:47;;;;;;;2.30;1.73;;;;;;;15.83;100.00;100734.03;4896936;29;20040;-78
2022/10/16 08:33:13;;;;;;;2.13;1.85;;;;;;;15.91;100.00;100736.38;4915284;29;20051;-77
2022/10/16 08:35:40;;;;;;;3.40;1.80;;;;;;;15.99;100.00;100734.28;4899181;29;20055;-78
2022/10/16 08:38:07;;;;;;;2.92;2.20;;;;;;;16.12;100.00;100745.25;4898859;29;20048;-77
2022/10/16 08:40:36;;;;;;;3.08;1.75;;;;;;;16.24;100.00;100742.97;4929084;29;20044;-77
2022/10/16 08:43:30;;;;;;;2.35;1.80;;;;;;;16.33;100.00;100739.03;4914858;29;21312;-78
2022/10/16 08:46:24;;;;;;;2.35;1.88;;;;;;;16.48;100.00;100740.16;4918970;29;20047;-78
2022/10/16 08:48:53;;;;;;;2.85;1.88;;;;;;;16.49;100.00;100736.56;4901741;29;20608;-78
2022/10/16 08:51:24;;;;;;;2.10;1.88;;;;;;;16.59;100.00;100736.09;4927820;29;20089;-77
2022/10/16 08:53:56;;;;;;;3.55;1.63;;;;;;;16.76;100.00;100745.19;4898811;29;20048;-77
2022/10/16 08:56:23;;;;;;;2.45;1.83;;;;;;;16.89;100.00;100751.69;4893473;29;20409;-77
2022/10/16 08:58:52;;;;;;;2.22;1.73;;;;;;;16.96;100.00;100760.28;4898454;29;20166;-76
2022/10/16 09:01:28;;;;;;;2.47;1.80;;;;;;;17.07;100.00;100771.38;4918195;29;20046;-77
2022/10/16 09:04:16;;;;;;;2.30;1.92;;;;;;;17.23;100.00;100764.34;4914545;29;20458;-77
2022/10/16 09:06:47;;;;;;;3.88;1.88;;;;;;;17.39;100.00;100770.72;4925717;29;20056;-78
2022/10/16 09:09:20;;;;;;;3.85;2.45;;;;;;;17.45;100.00;100765.09;4901229;29;20052;-78
2022/10/16 09:11:56;;;;;;;2.47;1.55;;;;;;;17.74;100.00;100762.88;4914965;29;20421;-77
2022/10/16 09:14:43;;;;;;;1.85;1.60;;;;;;;18.03;100.00;100761.44;4894409;29;20048;-78
2022/10/16 09:17:36;;;;;;;3.15;1.98;;;;;;;18.54;100.00;100752.56;4881958;29;20052;-77
2022/10/16 09:20:22;;;;;;;2.40;1.80;;;;;;;18.70;100.00;100757.16;4931244;29;20131;-78
2022/10/16 09:22:48;;;;;;;2.38;1.75;;;;;;;18.60;100.00;100774.63;4910781;29;20036;-79
2022/10/16 09:25:18;;;;;;;2.35;1.90;;;;;;;18.50;98.18;100777.78;4923321;29;20047;-78
2022/10/16 09:27:47;;;;;;;5.47;1.90;;;;;;;18.43;100.00;100779.03;4926427;28;20052;-77
2022/10/16 09:30:19;;;;;;;2.40;1.80;;;;;;;18.56;100.00;100769.41;4905003;29;20052;-78
2022/10/16 09:32:48;;;;;;;3.00;1.83;;;;;;;18.91;100.00;100764.03;4897509;29;20040;-78
2022/10/16 09:35:31;;;;;;;2.67;2.22;;;;;;;19.22;93.48;100770.44;4907931;29;20044;-79
2022/10/16 09:37:58;;;;;;;2.42;2.03;;;;;;;19.51;90.82;100780.44;4914189;29;20044;-78
2022/10/16 09:40:38;;;;;;;3.15;2.05;;;;;;;19.59;90.07;100780.00;4897115;29;20040;-78
2022/10/16 09:43:21;;;;;;;3.15;1.80;;;;;;;19.76;89.21;100787.09;4893868;29;20040;-78
2022/10/16 09:45:56;;;;;;;4.32;2.10;;;;;;;19.79;82.45;100786.94;4889680;29;20040;-78
2022/10/16 09:48:25;;;;;;;2.40;1.58;;;;;;;19.71;84.78;100782.00;4908330;29;20525;-79
2022/10/16 09:50:59;;;;;;;2.65;2.03;;;;;;;19.74;81.59;100783.66;4904735;29;20099;-79
2022/10/16 09:53:43;;;;;;;3.90;1.75;;;;;;;19.74;84.44;100781.81;4894694;29;20039;-78
2022/10/16 09:56:13;;;;;;;;;;;;;;;19.67;83.77;100784.00;4909566;29;20040;-78
2022/10/16 09:58:44;;;;;;;4.85;1.83;;;;;;;19.76;81.36;100797.81;4906992;29;19923;-79
2022/10/16 10:01:13;;;;;;;1.83;1.27;;;;;;;19.84;75.66;100804.50;4897545;29;20782;-79
2022/10/16 10:03:41;;;;;;;2.13;1.38;;;;;;;19.79;72.76;100797.66;4905840;29;20040;-78
2022/10/16 10:06:26;;;;;;;1.73;1.30;;;;;;;19.61;76.62;100799.56;4913187;29;20048;-79
2022/10/16 10:09:23;;;;;;;2.55;1.50;;;;;;;19.51;78.66;100804.53;4909775;29;20047;-78
2022/10/16 10:11:57;;;;;;;2.72;2.05;;;;;;;19.38;78.39;100808.84;4891154;29;20048;-78
2022/10/16 10:14:46;;;;;;;3.25;2.35;;;;;;;19.17;82.30;100810.88;4910461;29;20036;-78
2022/10/16 10:17:17;;;;;;;2.65;1.50;;;;;;;19.03;81.51;100811.59;4905983;29;20126;-79
2022/10/16 10:19:48;;;;;;;2.67;1.30;;;;;;;18.84;84.84;100814.41;4906818;29;20048;-78
2022/10/16 10:22:27;;;;;;;2.72;1.80;;;;;;;18.73;82.84;100815.88;4890079;29;20071;-79
2022/10/16 10:25:13;;;;;;;2.97;2.58;;;;;;;18.57;84.28;100826.47;4924748;29;20115;-78
2022/10/16 10:27:43;;;;;;;6.57;4.00;;;;;;;18.51;83.35;100818.78;4901828;29;20104;-79
2022/10/16 10:30:26;;;;;;;4.25;3.85;;;;;;;18.36;85.75;100817.72;4869446;29;21534;-78
2022/10/16 10:33:19;;;;;;;6.00;5.28;;;;;;;18.31;86.34;100813.53;4890633;29;20053;-79
2022/10/16 10:36:04;;;;;;;8.73;7.82;;;;;;;18.24;86.88;100818.31;4929717;29;20040;-79
2022/10/16 10:38:48;;;;;;;5.00;3.38;;;;;;;18.23;86.59;100822.81;4896261;29;20485;-79
2022/10/16 10:41:34;;;;;;;6.05;3.60;;;;;;;18.14;89.48;100809.91;4901108;29;20080;-78
2022/10/16 10:44:37;;;;;;;4.75;4.20;;;;;;;18.29;92.03;100810.94;4910381;29;20040;-78
2022/10/16 10:47:18;;;;;;;9.47;4.33;;;;;;;18.50;92.51;100815.22;4895583;29;20063;-78
2022/10/16 10:50:00;;;;;;;10.98;9.57;;;;;;;18.70;91.17;100821.41;4927612;28;21903;-79
2022/10/16 10:52:38;;;;;;;7.25;6.05;;;;;;;18.62;91.00;100824.44;4923919;29;20048;-78
2022/10/16 10:55:23;;;;;;;3.92;3.15;;;;;;;18.39;90.94;100828.25;4907603;29;20701;-78
2022/10/16 10:58:28;;;;;;;4.22;2.60;;;;;;;18.57;93.04;100821.97;4912372;29;20052;-78
2022/10/16 11:01:12;;;;;;;4.28;2.80;;;;;;;18.43;93.42;100829.00;4906368;29;20040;-78
2022/10/16 11:04:05;;;;;;;4.18;2.50;;;;;;;18.39;92.66;100825.59;4923218;29;20032;-77
2022/10/16 11:06:40;;;;;;;3.70;2.80;;;;;;;18.29;92.16;100841.25;4897437;29;20462;-78
2022/10/16 11:09:17;;;;;;;5.38;2.42;;;;;;;18.52;92.33;100832.06;4897671;29;20063;-78
2022/10/16 11:11:51;;;;;;;3.38;2.70;;;;;;;18.59;93.02;100829.09;4910615;29;20040;-78
2022/10/16 11:14:35;;;;;;;3.95;2.22;;;;;;;18.79;90.59;100829.81;4891554;29;20040;-78
2022/10/16 11:17:10;;;;;;;3.60;2.10;;;;;;;18.86;91.91;100825.00;4892457;29;20052;-77
2022/10/16 11:19:45;;;;;;;4.20;2.70;;;;;;;18.94;91.01;100830.84;4897215;29;20588;-78
2022/10/16 11:22:29;;;;;;;2.67;2.13;;;;;;;18.87;87.99;100825.88;4893494;29;20048;-78
2022/10/16 11:25:13;;;;;;;2.47;1.95;;;;;;;18.92;91.09;100826.47;4893588;29;20040;-76
2022/10/16 11:27:49;;;;;;;2.53;1.92;;;;;;;18.91;92.66;100825.63;4895432;29;20039;-78
2022/10/16 11:30:27;;;;;;;2.90;2.33;;;;;;;18.92;93.29;100840.75;4898864;29;20056;-78
2022/10/16 11:33:09;;;;;;;2.28;1.85;;;;;;;18.84;92.78;100835.81;4896028;29;20529;-78
2022/10/16 11:35:46;;;;;;;2.25;1.83;;;;;;;18.77;91.83;100838.88;4910343;29;20043;-78